• Join FlightAware (Why Join?)
  • Login
  • US Flag 
01:13AM EDT


 

Airport Tracker/Info


-or-


 

Live Flight TrackerFlight Track Log ✈ EJA122 ✈ 21-Jul-2013 ✈ KGCK - KHOU

Flight Track Log - Related Links

Times and Time Zones

All times are in EDT time to prevent confusion due to time zone crossing. See the EJA122 flight status page for this flight to view local times or setup timezone preferences in your user account.

Time Position Orientation Groundspeed Altitude Reporting Facility
EDT Latitude Longitude Course Direction KTS MPH feet Rate Location/Type
01:16PM 37.9258 -100.7222 North 27 31 2,900  Level Kansas City Center
01:18PM 37.9686 -100.7139 North 139 160 4,300 1,860 Climbing Kansas City Center
01:19PM 37.9572 -100.6492 103° East 194 223 6,800 1,920 Climbing Kansas City Center
01:20PM 37.9053 -100.5817 134° Southeast 224 258 8,300 1,440 Climbing Kansas City Center
01:21PM 37.8528 -100.5147 135° Southeast 255 293 9,800 1,380 Climbing Kansas City Center
01:22PM 37.7869 -100.4306 135° Southeast 287 330 11,200 1,440 Climbing Kansas City Center
01:23PM 37.7247 -100.3517 135° Southeast 318 366 12,800 1,620 Climbing Kansas City Center
01:24PM 37.6489 -100.2569 135° Southeast 338 389 14,600 1,500 Climbing Kansas City Center
01:25PM 37.5842 -100.1739 135° Southeast 344 396 15,900 1,260 Climbing Kansas City Center
01:26PM 37.5047 -100.0744 135° Southeast 356 410 17,300 1,200 Climbing Kansas City Center
01:27PM 37.4342 -99.9858 135° Southeast 369 425 18,400 1,020 Climbing Kansas City Center
01:28PM 37.3622 -99.8961 135° Southeast 377 434 19,500 1,140 Climbing Kansas City Center
01:29PM 37.2775 -99.7883 135° Southeast 385 443 20,800 1,020 Climbing Kansas City Center
01:30PM 37.2014 -99.6975 136° Southeast 392 451 21,700 960 Climbing Kansas City Center
01:31PM 37.1131 -99.5847 134° Southeast 402 463 22,800 960 Climbing Kansas City Center
01:32PM 37.0306 -99.4828 135° Southeast 407 468 23,800 960 Climbing Kansas City Center
01:33PM 36.9497 -99.3744 133° Southeast 417 480 24,800 960 Climbing Kansas City Center
01:34PM 36.8667 -99.2822 138° Southeast 409 471 25,800 900 Climbing Kansas City Center
01:35PM 36.7850 -99.1814 135° Southeast 410 472 26,700 900 Climbing Kansas City Center
01:36PM 36.7053 -99.0819 135° Southeast 406 467 27,700 960 Climbing Kansas City Center
01:37PM 36.6228 -98.9886 138° Southeast 403 464 28,700 960 Climbing Kansas City Center
01:38PM 36.5036 -98.9139 153° Southeast 398 458 29,800 960 Climbing Kansas City Center
01:39PM 36.4042 -98.8544 154° Southeast 392 451 30,800 780 Climbing Kansas City Center
01:40PM 36.3039 -98.7961 155° Southeast 394 453 31,500 660 Climbing Kansas City Center
01:41PM 36.2086 -98.7400 155° Southeast 399 459 32,200 660 Climbing Kansas City Center
01:42PM 36.0975 -98.6769 155° Southeast 403 464 32,900 660 Climbing Kansas City Center
01:43PM 35.9936 -98.6169 155° Southeast 407 468 33,600 660 Climbing Kansas City Center
01:44PM 35.8906 -98.5567 155° Southeast 406 467 34,300 540 Climbing Kansas City Center
01:45PM 35.7864 -98.4986 156° South 408 470 34,800 480 Climbing Kansas City Center
01:46PM 35.6817 -98.4394 155° Southeast 410 472 35,300 480 Climbing Kansas City Center
01:47PM 35.5922 -98.3911 156° South 394 453 35,700 420 Climbing Fort Worth Center
01:48PM 35.4903 -98.3339 155° Southeast 394 453 36,100 420 Climbing Fort Worth Center
01:49PM 35.3844 -98.2742 155° Southeast 394 453 36,600 420 Climbing Fort Worth Center
01:50PM 35.2825 -98.2197 156° South 399 459 37,000 180 Climbing Fort Worth Center
01:51PM 35.1786 -98.1603 155° Southeast 399 459 37,000  Level Fort Worth Center
01:52PM 35.0686 -98.0983 155° Southeast 409 471 37,000  Level Fort Worth Center
01:53PM 34.9583 -98.0367 155° Southeast 428 493 37,000  Level Fort Worth Center
01:54PM 34.8458 -97.9728 155° Southeast 442 509 37,000  Level Fort Worth Center
01:55PM 34.7314 -97.9114 156° South 442 509 37,000  Level Fort Worth Center
01:57PM 34.5025 -97.7814 155° Southeast 447 514 37,000  Level Fort Worth Center
01:58PM 34.3878 -97.7206 156° South 447 514 37,000  Level Fort Worth Center
01:59PM 34.2733 -97.6572 155° Southeast 452 520 37,000  Level Fort Worth Center
02:00PM 34.1564 -97.5942 156° South 458 527 37,000  Level Fort Worth Center
02:01PM 34.0481 -97.5289 153° Southeast 451 519 37,000  Level Fort Worth Center
02:02PM 33.9314 -97.4636 155° Southeast 446 513 37,000  Level Fort Worth Center
02:03PM 33.8144 -97.4008 156° South 446 513 37,000  Level Fort Worth Center
02:04PM 33.6997 -97.3386 156° South 451 519 37,000  Level Fort Worth Center
02:05PM 33.5847 -97.2739 155° Southeast 451 519 37,000  Level Fort Worth Center
02:06PM 33.4825 -97.2192 156° South 457 526 37,000  Level Fort Worth Center
02:07PM 33.3653 -97.1572 156° South 457 526 37,000  Level Fort Worth Center
02:08PM 33.2506 -97.0931 155° Southeast 457 526 37,000  Level Fort Worth Center
02:09PM 33.1333 -97.0314 156° South 457 526 37,000  Level Fort Worth Center
02:10PM 33.0039 -96.9650 157° South 457 526 37,000  Level Fort Worth Center
02:11PM 32.8950 -96.9136 158° South 462 532 37,000  Level Fort Worth Center
02:12PM 32.7697 -96.8969 174° South 452 520 37,000  Level Fort Worth Center
02:13PM 32.6422 -96.8903 177° South 457 526 37,000  Level Fort Worth Center
02:14PM 32.5150 -96.8814 177° South 462 532 37,000  Level Fort Worth Center
02:15PM 32.3917 -96.8769 178° South 457 526 37,000  Level Fort Worth Center
02:16PM 32.2644 -96.8706 178° South 457 526 37,000  Level Fort Worth Center
02:17PM 32.1369 -96.8639 177° South 457 526 37,000  Level Fort Worth Center
02:18PM 32.0139 -96.8572 177° South 457 526 37,000  Level Fort Worth Center
02:19PM 31.8781 -96.8483 177° South 457 526 37,000  Level Fort Worth Center
02:20PM 31.7506 -96.8417 177° South 457 526 37,000  Level Fort Worth Center
02:21PM 31.6925 -96.8367 176° South 451 519 37,000  Level Houston Center
02:22PM 31.5656 -96.8156 172° South 453 521 37,000  Level Houston Center
02:23PM 31.4406 -96.7942 172° South 450 518 37,000  Level Houston Center
02:24PM 31.3139 -96.7739 172° South 452 520 37,000 -600 Level Houston Center
02:25PM 31.1872 -96.7531 172° South 450 518 35,800 -1,560 Descending Houston Center
02:26PM 31.0578 -96.7322 172° South 458 527 33,800 -2,160 Descending Houston Center
02:27PM 30.9253 -96.7111 172° South 470 541 31,400 -2,700 Descending Houston Center
02:28PM 30.7992 -96.6922 173° South 454 522 28,300 -3,240 Descending Houston Center
02:29PM 30.6531 -96.6686 172° South 447 514 24,800 -3,180 Descending Houston Center
02:30PM 30.5367 -96.5989 153° Southeast 467 537 21,800 -2,820 Descending Houston Center
02:31PM 30.4506 -96.4978 135° Southeast 439 505 19,000 -2,640 Descending Houston Center
02:32PM 30.3672 -96.3994 134° Southeast 427 491 16,400 -2,520 Descending Houston Center
02:33PM 30.2894 -96.3053 134° Southeast 401 461 13,800 -2,700 Descending Houston Center
02:34PM 30.2411 -96.2525 137° Southeast 394 453 12,200 -1,800 Descending Houston Center
02:35PM 30.1439 -96.1958 153° Southeast 366 421 11,000 -960 Descending Houston Center
02:36PM 30.0494 -96.1461 155° Southeast 359 413 10,300 -660 Descending Houston Center
02:36PM 30.0081 -96.1217 153° Southeast 360 414 10,000 -1,020 Descending Houston Center
02:37PM 29.9564 -96.0867 150° Southeast 277 319 9,100 -1,200 Descending Houston Center
02:38PM 29.8983 -96.0475 150° Southeast 289 333 8,200 -1,020 Descending Houston Center
02:38PM 29.8678 -96.0278 151° Southeast 290 334 7,800 -1,140 Descending Houston Center
02:39PM 29.8189 -96.0011 155° Southeast 289 333 7,000 -540 Descending Houston Center
02:40PM 29.7522 -95.9583 151° Southeast 279 321 7,000 -120 Level Houston Center
02:41PM 29.6944 -95.8975 138° Southeast 285 328 6,800 -480 Descending Houston Center
02:42PM 29.6553 -95.8347 126° Southeast 239 275 6,100 -420 Descending Houston Center
02:43PM 29.6039 -95.8000 150° Southeast 230 265 6,100  Level Houston Center
02:43PM 29.6061 -95.7531 87° East 260 299 6,100  Level Houston Center
02:44PM 29.6589 -95.6931 45° Northeast 269 310 6,100 -60 Level Houston Center
02:45PM 29.7103 -95.6361 44° Northeast 260 299 6,000 -840 Descending Houston Center
02:46PM 29.7517 -95.5744 52° Northeast 249 287 4,500 -1,440 Descending Houston Center
02:48PM 29.7692 -95.5014 75° East 241 277 3,100 -960 Descending Houston Center
02:49PM 29.7783 -95.4400 80° East 227 261 2,600 -540 Descending Houston Center
02:50PM 29.7403 -95.3919 132° Southeast 184 212 2,100 -480 Descending Houston Center
02:51PM 29.7078 -95.3531 134° Southeast 173 199 1,700 -600 Descending Houston Center
02:52PM 29.6772 -95.3175 135° Southeast 166 191 900 -780 Descending Houston Center
02:53PM 29.6536 -95.2881 133° Southeast 147 169 200 -720 Descending Houston Center
02:55PM 29.6454 -95.2789 115° Southeast  Level Estimated